sensor_id;sensor_type;location;lat;lon;timestamp;P1;durP1;ratioP1;P2;durP2;ratioP2
50225;SDS011;36113;50.742;6.432;2022-12-18T00:00:54;9.25;;;5.15;;
50225;SDS011;36113;50.742;6.432;2022-12-18T00:03:19;7.50;;;4.65;;
50225;SDS011;36113;50.742;6.432;2022-12-18T00:05:51;6.47;;;3.83;;
50225;SDS011;36113;50.742;6.432;2022-12-18T00:08:17;6.22;;;4.43;;
50225;SDS011;36113;50.742;6.432;2022-12-18T00:10:44;5.95;;;4.43;;
50225;SDS011;36113;50.742;6.432;2022-12-18T00:13:10;6.18;;;4.30;;
50225;SDS011;36113;50.742;6.432;2022-12-18T00:15:37;6.03;;;3.85;;
50225;SDS011;36113;50.742;6.432;2022-12-18T00:18:04;6.13;;;3.92;;
50225;SDS011;36113;50.742;6.432;2022-12-18T00:20:36;5.67;;;3.20;;
50225;SDS011;36113;50.742;6.432;2022-12-18T00:23:03;2.72;;;2.53;;
50225;SDS011;36113;50.742;6.432;2022-12-18T00:25:29;5.43;;;2.73;;
50225;SDS011;36113;50.742;6.432;2022-12-18T00:27:54;2.35;;;2.25;;
50225;SDS011;36113;50.742;6.432;2022-12-18T00:30:19;2.28;;;1.73;;
50225;SDS011;36113;50.742;6.432;2022-12-18T00:32:45;2.72;;;2.22;;
50225;SDS011;36113;50.742;6.432;2022-12-18T00:35:13;3.25;;;2.47;;
50225;SDS011;36113;50.742;6.432;2022-12-18T00:37:39;3.92;;;2.15;;
50225;SDS011;36113;50.742;6.432;2022-12-18T00:40:04;4.30;;;2.28;;
50225;SDS011;36113;50.742;6.432;2022-12-18T00:42:30;2.35;;;2.25;;
50225;SDS011;36113;50.742;6.432;2022-12-18T00:45:14;2.80;;;2.47;;
50225;SDS011;36113;50.742;6.432;2022-12-18T00:47:39;3.33;;;2.95;;
50225;SDS011;36113;50.742;6.432;2022-12-18T00:50:05;5.38;;;4.05;;
50225;SDS011;36113;50.742;6.432;2022-12-18T00:52:31;3.90;;;3.30;;
50225;SDS011;36113;50.742;6.432;2022-12-18T00:54:56;5.03;;;3.55;;
50225;SDS011;36113;50.742;6.432;2022-12-18T00:57:22;3.58;;;3.28;;
50225;SDS011;36113;50.742;6.432;2022-12-18T00:59:47;4.97;;;3.25;;
50225;SDS011;36113;50.742;6.432;2022-12-18T01:02:12;5.63;;;3.92;;
50225;SDS011;36113;50.742;6.432;2022-12-18T01:04:38;3.83;;;2.78;;
50225;SDS011;36113;50.742;6.432;2022-12-18T01:07:03;2.83;;;2.15;;
50225;SDS011;36113;50.742;6.432;2022-12-18T01:09:28;2.65;;;2.45;;
50225;SDS011;36113;50.742;6.432;2022-12-18T01:11:54;3.03;;;2.72;;
50225;SDS011;36113;50.742;6.432;2022-12-18T01:14:19;5.50;;;3.33;;
50225;SDS011;36113;50.742;6.432;2022-12-18T01:16:44;4.03;;;3.47;;
50225;SDS011;36113;50.742;6.432;2022-12-18T01:19:09;4.80;;;3.45;;
50225;SDS011;36113;50.742;6.432;2022-12-18T01:21:35;4.93;;;3.17;;
50225;SDS011;36113;50.742;6.432;2022-12-18T01:24:00;4.03;;;3.63;;
50225;SDS011;36113;50.742;6.432;2022-12-18T01:26:26;5.38;;;3.83;;
50225;SDS011;36113;50.742;6.432;2022-12-18T01:28:54;3.67;;;3.13;;
50225;SDS011;36113;50.742;6.432;2022-12-18T01:31:25;3.45;;;2.95;;
50225;SDS011;36113;50.742;6.432;2022-12-18T01:33:52;4.22;;;3.25;;
50225;SDS011;36113;50.742;6.432;2022-12-18T01:36:19;3.37;;;2.90;;
50225;SDS011;36113;50.742;6.432;2022-12-18T01:38:49;4.05;;;3.58;;
50225;SDS011;36113;50.742;6.432;2022-12-18T01:41:16;3.13;;;2.85;;
50225;SDS011;36113;50.742;6.432;2022-12-18T01:43:46;10.68;;;4.45;;
50225;SDS011;36113;50.742;6.432;2022-12-18T01:46:17;8.43;;;4.05;;
50225;SDS011;36113;50.742;6.432;2022-12-18T01:48:44;6.47;;;3.72;;
50225;SDS011;36113;50.742;6.432;2022-12-18T01:51:13;5.63;;;3.70;;
50225;SDS011;36113;50.742;6.432;2022-12-18T01:53:40;8.25;;;3.53;;
50225;SDS011;36113;50.742;6.432;2022-12-18T01:56:07;2.80;;;2.42;;
50225;SDS011;36113;50.742;6.432;2022-12-18T02:01:28;3.70;;;2.92;;
50225;SDS011;36113;50.742;6.432;2022-12-18T02:03:54;4.05;;;2.70;;
50225;SDS011;36113;50.742;6.432;2022-12-18T02:08:51;4.18;;;3.78;;
50225;SDS011;36113;50.742;6.432;2022-12-18T02:11:31;4.38;;;3.50;;
50225;SDS011;36113;50.742;6.432;2022-12-18T02:14:28;10.73;;;5.10;;
50225;SDS011;36113;50.742;6.432;2022-12-18T02:28:51;3.03;;;2.65;;
50225;SDS011;36113;50.742;6.432;2022-12-18T02:31:27;3.65;;;3.33;;
50225;SDS011;36113;50.742;6.432;2022-12-18T02:33:59;6.43;;;4.18;;
50225;SDS011;36113;50.742;6.432;2022-12-18T02:36:27;6.60;;;3.83;;
50225;SDS011;36113;50.742;6.432;2022-12-18T02:38:54;8.13;;;4.03;;
50225;SDS011;36113;50.742;6.432;2022-12-18T02:41:24;3.30;;;3.00;;
50225;SDS011;36113;50.742;6.432;2022-12-18T02:43:55;3.00;;;2.80;;
50225;SDS011;36113;50.742;6.432;2022-12-18T02:46:29;3.28;;;3.03;;
50225;SDS011;36113;50.742;6.432;2022-12-18T02:49:08;2.75;;;2.47;;
50225;SDS011;36113;50.742;6.432;2022-12-18T02:51:47;3.05;;;2.75;;
50225;SDS011;36113;50.742;6.432;2022-12-18T02:54:21;3.05;;;2.55;;
50225;SDS011;36113;50.742;6.432;2022-12-18T02:57:03;3.97;;;2.70;;
50225;SDS011;36113;50.742;6.432;2022-12-18T02:59:42;4.07;;;2.78;;
50225;SDS011;36113;50.742;6.432;2022-12-18T03:02:44;4.70;;;3.22;;
50225;SDS011;36113;50.742;6.432;2022-12-18T03:05:15;4.55;;;3.05;;
50225;SDS011;36113;50.742;6.432;2022-12-18T03:07:49;6.15;;;2.90;;
50225;SDS011;36113;50.742;6.432;2022-12-18T03:10:25;2.55;;;2.35;;
50225;SDS011;36113;50.742;6.432;2022-12-18T03:12:56;3.45;;;3.00;;
50225;SDS011;36113;50.742;6.432;2022-12-18T03:15:34;5.30;;;2.65;;
50225;SDS011;36113;50.742;6.432;2022-12-18T03:18:07;4.45;;;2.47;;
50225;SDS011;36113;50.742;6.432;2022-12-18T03:20:40;3.55;;;3.10;;
50225;SDS011;36113;50.742;6.432;2022-12-18T03:23:09;2.83;;;2.63;;
50225;SDS011;36113;50.742;6.432;2022-12-18T03:25:42;3.10;;;2.90;;
50225;SDS011;36113;50.742;6.432;2022-12-18T03:28:13;3.40;;;3.10;;
50225;SDS011;36113;50.742;6.432;2022-12-18T03:30:45;3.05;;;2.75;;
50225;SDS011;36113;50.742;6.432;2022-12-18T03:33:24;3.33;;;3.05;;
50225;SDS011;36113;50.742;6.432;2022-12-18T03:35:53;4.57;;;3.20;;
50225;SDS011;36113;50.742;6.432;2022-12-18T03:38:18;4.40;;;3.40;;
50225;SDS011;36113;50.742;6.432;2022-12-18T03:40:59;3.25;;;2.95;;
50225;SDS011;36113;50.742;6.432;2022-12-18T03:49:14;6.07;;;3.60;;
50225;SDS011;36113;50.742;6.432;2022-12-18T03:51:42;4.65;;;3.35;;
50225;SDS011;36113;50.742;6.432;2022-12-18T03:54:15;3.72;;;3.20;;
50225;SDS011;36113;50.742;6.432;2022-12-18T03:56:45;4.72;;;3.47;;
50225;SDS011;36113;50.742;6.432;2022-12-18T03:59:16;5.88;;;3.30;;
50225;SDS011;36113;50.742;6.432;2022-12-18T04:01:47;4.03;;;3.63;;
50225;SDS011;36113;50.742;6.432;2022-12-18T04:04:17;7.93;;;4.03;;
50225;SDS011;36113;50.742;6.432;2022-12-18T04:09:10;5.13;;;3.00;;
50225;SDS011;36113;50.742;6.432;2022-12-18T04:11:36;2.78;;;2.58;;
50225;SDS011;36113;50.742;6.432;2022-12-18T04:14:02;3.63;;;2.78;;
50225;SDS011;36113;50.742;6.432;2022-12-18T04:16:27;3.65;;;3.35;;
50225;SDS011;36113;50.742;6.432;2022-12-18T04:18:53;5.75;;;2.95;;
50225;SDS011;36113;50.742;6.432;2022-12-18T04:21:19;3.13;;;2.83;;
50225;SDS011;36113;50.742;6.432;2022-12-18T04:23:44;3.42;;;2.72;;
50225;SDS011;36113;50.742;6.432;2022-12-18T04:26:10;3.90;;;3.50;;
50225;SDS011;36113;50.742;6.432;2022-12-18T04:28:35;5.25;;;4.07;;
50225;SDS011;36113;50.742;6.432;2022-12-18T04:31:01;4.03;;;3.22;;
50225;SDS011;36113;50.742;6.432;2022-12-18T04:33:26;3.47;;;2.75;;
50225;SDS011;36113;50.742;6.432;2022-12-18T04:35:51;4.18;;;3.63;;
50225;SDS011;36113;50.742;6.432;2022-12-18T04:38:17;6.70;;;3.58;;
50225;SDS011;36113;50.742;6.432;2022-12-18T04:40:45;3.75;;;3.25;;
50225;SDS011;36113;50.742;6.432;2022-12-18T04:43:10;3.70;;;3.25;;
50225;SDS011;36113;50.742;6.432;2022-12-18T04:45:35;3.50;;;2.92;;
50225;SDS011;36113;50.742;6.432;2022-12-18T04:48:01;4.03;;;3.30;;
50225;SDS011;36113;50.742;6.432;2022-12-18T04:50:28;5.95;;;3.42;;
50225;SDS011;36113;50.742;6.432;2022-12-18T04:52:54;4.63;;;3.55;;
50225;SDS011;36113;50.742;6.432;2022-12-18T04:55:19;4.05;;;3.10;;
50225;SDS011;36113;50.742;6.432;2022-12-18T04:57:44;5.03;;;3.67;;
50225;SDS011;36113;50.742;6.432;2022-12-18T05:00:10;3.70;;;3.35;;
50225;SDS011;36113;50.742;6.432;2022-12-18T05:02:36;3.97;;;3.25;;
50225;SDS011;36113;50.742;6.432;2022-12-18T05:05:01;6.20;;;4.13;;
50225;SDS011;36113;50.742;6.432;2022-12-18T05:07:27;8.15;;;4.15;;
50225;SDS011;36113;50.742;6.432;2022-12-18T05:09:52;6.13;;;4.28;;
50225;SDS011;36113;50.742;6.432;2022-12-18T05:12:17;5.57;;;4.28;;
50225;SDS011;36113;50.742;6.432;2022-12-18T05:14:43;5.88;;;4.00;;
50225;SDS011;36113;50.742;6.432;2022-12-18T05:17:08;5.18;;;4.15;;
50225;SDS011;36113;50.742;6.432;2022-12-18T05:19:33;4.38;;;3.55;;
50225;SDS011;36113;50.742;6.432;2022-12-18T05:21:58;4.97;;;3.03;;
50225;SDS011;36113;50.742;6.432;2022-12-18T05:24:24;5.15;;;3.25;;
50225;SDS011;36113;50.742;6.432;2022-12-18T05:26:49;4.18;;;2.67;;
50225;SDS011;36113;50.742;6.432;2022-12-18T05:29:15;3.10;;;2.80;;
50225;SDS011;36113;50.742;6.432;2022-12-18T05:31:40;5.20;;;3.47;;
50225;SDS011;36113;50.742;6.432;2022-12-18T05:34:06;3.88;;;3.15;;
50225;SDS011;36113;50.742;6.432;2022-12-18T05:36:31;4.63;;;3.47;;
50225;SDS011;36113;50.742;6.432;2022-12-18T05:38:56;3.75;;;2.85;;
50225;SDS011;36113;50.742;6.432;2022-12-18T05:41:22;5.22;;;3.33;;
50225;SDS011;36113;50.742;6.432;2022-12-18T05:43:47;4.32;;;3.38;;
50225;SDS011;36113;50.742;6.432;2022-12-18T05:46:13;6.55;;;4.40;;
50225;SDS011;36113;50.742;6.432;2022-12-18T05:48:41;4.22;;;3.83;;
50225;SDS011;36113;50.742;6.432;2022-12-18T05:51:08;3.47;;;3.17;;
50225;SDS011;36113;50.742;6.432;2022-12-18T05:53:35;4.65;;;4.03;;
50225;SDS011;36113;50.742;6.432;2022-12-18T05:56:02;3.57;;;3.27;;
50225;SDS011;36113;50.742;6.432;2022-12-18T06:00:54;4.60;;;3.58;;
50225;SDS011;36113;50.742;6.432;2022-12-18T06:03:22;5.18;;;3.42;;
50225;SDS011;36113;50.742;6.432;2022-12-18T06:05:48;3.20;;;2.90;;
50225;SDS011;36113;50.742;6.432;2022-12-18T06:08:14;4.15;;;3.33;;
50225;SDS011;36113;50.742;6.432;2022-12-18T06:10:39;3.05;;;2.60;;
50225;SDS011;36113;50.742;6.432;2022-12-18T06:13:05;3.47;;;3.17;;
50225;SDS011;36113;50.742;6.432;2022-12-18T06:15:31;3.53;;;3.23;;
50225;SDS011;36113;50.742;6.432;2022-12-18T06:18:05;3.38;;;2.92;;
50225;SDS011;36113;50.742;6.432;2022-12-18T06:20:33;3.30;;;2.63;;
50225;SDS011;36113;50.742;6.432;2022-12-18T06:23:01;3.58;;;2.67;;
50225;SDS011;36113;50.742;6.432;2022-12-18T06:25:26;5.03;;;3.22;;
50225;SDS011;36113;50.742;6.432;2022-12-18T06:27:54;4.75;;;3.90;;
50225;SDS011;36113;50.742;6.432;2022-12-18T06:30:20;4.72;;;3.78;;
50225;SDS011;36113;50.742;6.432;2022-12-18T06:32:45;5.60;;;4.10;;
50225;SDS011;36113;50.742;6.432;2022-12-18T06:35:10;3.50;;;3.20;;
50225;SDS011;36113;50.742;6.432;2022-12-18T06:37:36;6.70;;;4.63;;
50225;SDS011;36113;50.742;6.432;2022-12-18T06:40:01;6.45;;;5.53;;
50225;SDS011;36113;50.742;6.432;2022-12-18T06:42:26;7.97;;;6.22;;
50225;SDS011;36113;50.742;6.432;2022-12-18T06:44:53;6.80;;;5.80;;
50225;SDS011;36113;50.742;6.432;2022-12-18T06:47:18;10.80;;;6.07;;
50225;SDS011;36113;50.742;6.432;2022-12-18T06:49:44;9.02;;;5.68;;
50225;SDS011;36113;50.742;6.432;2022-12-18T06:52:09;6.72;;;4.80;;
50225;SDS011;36113;50.742;6.432;2022-12-18T06:54:34;8.13;;;5.82;;
50225;SDS011;36113;50.742;6.432;2022-12-18T06:56:59;5.53;;;4.72;;
50225;SDS011;36113;50.742;6.432;2022-12-18T06:59:25;8.00;;;5.30;;
50225;SDS011;36113;50.742;6.432;2022-12-18T07:01:50;4.65;;;3.67;;
50225;SDS011;36113;50.742;6.432;2022-12-18T07:04:15;4.65;;;3.25;;
50225;SDS011;36113;50.742;6.432;2022-12-18T07:06:41;3.53;;;3.22;;
50225;SDS011;36113;50.742;6.432;2022-12-18T07:09:06;4.05;;;3.55;;
50225;SDS011;36113;50.742;6.432;2022-12-18T07:11:32;5.82;;;4.18;;
50225;SDS011;36113;50.742;6.432;2022-12-18T07:13:58;4.75;;;3.67;;
50225;SDS011;36113;50.742;6.432;2022-12-18T07:16:24;6.68;;;4.38;;
50225;SDS011;36113;50.742;6.432;2022-12-18T07:18:49;5.05;;;4.03;;
50225;SDS011;36113;50.742;6.432;2022-12-18T07:21:17;4.43;;;3.85;;
50225;SDS011;36113;50.742;6.432;2022-12-18T07:23:43;5.65;;;4.55;;
50225;SDS011;36113;50.742;6.432;2022-12-18T07:26:12;7.47;;;4.28;;
50225;SDS011;36113;50.742;6.432;2022-12-18T07:28:39;4.40;;;3.97;;
50225;SDS011;36113;50.742;6.432;2022-12-18T07:31:09;9.30;;;5.32;;
50225;SDS011;36113;50.742;6.432;2022-12-18T07:33:37;6.47;;;4.20;;
50225;SDS011;36113;50.742;6.432;2022-12-18T07:36:04;6.63;;;4.38;;
50225;SDS011;36113;50.742;6.432;2022-12-18T07:38:31;7.93;;;4.60;;
50225;SDS011;36113;50.742;6.432;2022-12-18T07:41:04;6.93;;;4.90;;
50225;SDS011;36113;50.742;6.432;2022-12-18T07:43:31;6.32;;;4.43;;
50225;SDS011;36113;50.742;6.432;2022-12-18T07:45:56;7.57;;;5.65;;
50225;SDS011;36113;50.742;6.432;2022-12-18T07:48:22;10.63;;;5.85;;
50225;SDS011;36113;50.742;6.432;2022-12-18T07:50:47;6.25;;;4.88;;
50225;SDS011;36113;50.742;6.432;2022-12-18T07:53:12;9.77;;;5.40;;
50225;SDS011;36113;50.742;6.432;2022-12-18T07:55:39;7.20;;;5.40;;
50225;SDS011;36113;50.742;6.432;2022-12-18T07:58:06;10.15;;;5.80;;
50225;SDS011;36113;50.742;6.432;2022-12-18T08:00:32;12.83;;;7.37;;
50225;SDS011;36113;50.742;6.432;2022-12-18T08:02:58;12.75;;;6.50;;
50225;SDS011;36113;50.742;6.432;2022-12-18T08:05:23;11.32;;;7.03;;
50225;SDS011;36113;50.742;6.432;2022-12-18T08:07:49;11.25;;;7.47;;
50225;SDS011;36113;50.742;6.432;2022-12-18T08:10:14;9.10;;;7.07;;
50225;SDS011;36113;50.742;6.432;2022-12-18T08:12:40;9.68;;;6.65;;
50225;SDS011;36113;50.742;6.432;2022-12-18T08:15:05;10.45;;;7.20;;
50225;SDS011;36113;50.742;6.432;2022-12-18T08:17:31;13.07;;;8.15;;
50225;SDS011;36113;50.742;6.432;2022-12-18T08:19:57;11.23;;;7.57;;
50225;SDS011;36113;50.742;6.432;2022-12-18T08:22:22;9.90;;;7.78;;
50225;SDS011;36113;50.742;6.432;2022-12-18T08:24:47;12.55;;;7.50;;
50225;SDS011;36113;50.742;6.432;2022-12-18T08:27:12;12.50;;;7.38;;
50225;SDS011;36113;50.742;6.432;2022-12-18T08:29:38;10.68;;;7.32;;
50225;SDS011;36113;50.742;6.432;2022-12-18T08:32:03;14.77;;;7.70;;
50225;SDS011;36113;50.742;6.432;2022-12-18T08:34:29;10.40;;;7.88;;
50225;SDS011;36113;50.742;6.432;2022-12-18T08:36:54;11.57;;;7.80;;
50225;SDS011;36113;50.742;6.432;2022-12-18T08:39:19;12.45;;;8.65;;
50225;SDS011;36113;50.742;6.432;2022-12-18T08:41:45;12.95;;;7.82;;
50225;SDS011;36113;50.742;6.432;2022-12-18T08:44:30;11.75;;;7.63;;
50225;SDS011;36113;50.742;6.432;2022-12-18T08:47:05;9.82;;;7.43;;
50225;SDS011;36113;50.742;6.432;2022-12-18T08:49:30;13.00;;;8.30;;
50225;SDS011;36113;50.742;6.432;2022-12-18T08:51:56;13.45;;;8.60;;
50225;SDS011;36113;50.742;6.432;2022-12-18T08:54:25;14.00;;;8.90;;
50225;SDS011;36113;50.742;6.432;2022-12-18T08:56:51;14.23;;;9.65;;
50225;SDS011;36113;50.742;6.432;2022-12-18T08:59:17;17.40;;;10.52;;
50225;SDS011;36113;50.742;6.432;2022-12-18T09:01:43;13.13;;;9.48;;
50225;SDS011;36113;50.742;6.432;2022-12-18T09:04:11;14.77;;;9.52;;
50225;SDS011;36113;50.742;6.432;2022-12-18T09:06:37;22.50;;;12.85;;
50225;SDS011;36113;50.742;6.432;2022-12-18T09:09:02;14.13;;;10.02;;
50225;SDS011;36113;50.742;6.432;2022-12-18T09:11:29;12.30;;;8.35;;
50225;SDS011;36113;50.742;6.432;2022-12-18T09:13:56;17.33;;;8.65;;
50225;SDS011;36113;50.742;6.432;2022-12-18T09:16:23;12.93;;;9.27;;
50225;SDS011;36113;50.742;6.432;2022-12-18T09:18:49;14.77;;;9.95;;
50225;SDS011;36113;50.742;6.432;2022-12-18T09:21:17;18.13;;;11.98;;
50225;SDS011;36113;50.742;6.432;2022-12-18T09:23:44;16.13;;;12.30;;
50225;SDS011;36113;50.742;6.432;2022-12-18T09:26:10;20.37;;;13.17;;
50225;SDS011;36113;50.742;6.432;2022-12-18T09:28:35;14.52;;;11.10;;
50225;SDS011;36113;50.742;6.432;2022-12-18T09:31:05;11.90;;;9.10;;
50225;SDS011;36113;50.742;6.432;2022-12-18T09:33:32;14.93;;;9.95;;
50225;SDS011;36113;50.742;6.432;2022-12-18T09:36:00;14.98;;;10.38;;
50225;SDS011;36113;50.742;6.432;2022-12-18T09:38:27;17.05;;;10.63;;
50225;SDS011;36113;50.742;6.432;2022-12-18T09:40:53;18.05;;;11.10;;
50225;SDS011;36113;50.742;6.432;2022-12-18T09:43:27;16.30;;;10.70;;
50225;SDS011;36113;50.742;6.432;2022-12-18T09:46:01;14.88;;;9.80;;
50225;SDS011;36113;50.742;6.432;2022-12-18T09:48:31;15.07;;;10.23;;
50225;SDS011;36113;50.742;6.432;2022-12-18T09:51:05;14.65;;;10.27;;
50225;SDS011;36113;50.742;6.432;2022-12-18T09:53:37;17.13;;;11.00;;
50225;SDS011;36113;50.742;6.432;2022-12-18T09:56:04;21.52;;;11.50;;
50225;SDS011;36113;50.742;6.432;2022-12-18T09:58:31;22.77;;;12.48;;
50225;SDS011;36113;50.742;6.432;2022-12-18T10:01:11;17.92;;;10.98;;
50225;SDS011;36113;50.742;6.432;2022-12-18T10:03:39;17.48;;;11.73;;
50225;SDS011;36113;50.742;6.432;2022-12-18T10:11:25;21.52;;;13.23;;
50225;SDS011;36113;50.742;6.432;2022-12-18T10:14:08;18.77;;;12.13;;
50225;SDS011;36113;50.742;6.432;2022-12-18T10:17:02;15.82;;;11.18;;
50225;SDS011;36113;50.742;6.432;2022-12-18T10:27:53;16.63;;;11.30;;
50225;SDS011;36113;50.742;6.432;2022-12-18T10:30:24;16.95;;;11.75;;
50225;SDS011;36113;50.742;6.432;2022-12-18T10:32:50;15.05;;;10.55;;
50225;SDS011;36113;50.742;6.432;2022-12-18T10:35:20;13.00;;;9.75;;
50225;SDS011;36113;50.742;6.432;2022-12-18T10:38:01;15.25;;;11.30;;
50225;SDS011;36113;50.742;6.432;2022-12-18T10:40:30;16.00;;;10.65;;
50225;SDS011;36113;50.742;6.432;2022-12-18T10:43:11;14.27;;;9.98;;
50225;SDS011;36113;50.742;6.432;2022-12-18T10:45:38;14.52;;;9.57;;
50225;SDS011;36113;50.742;6.432;2022-12-18T10:48:04;16.70;;;9.33;;
50225;SDS011;36113;50.742;6.432;2022-12-18T10:53:13;12.30;;;9.15;;
50225;SDS011;36113;50.742;6.432;2022-12-18T10:55:44;11.55;;;7.68;;
50225;SDS011;36113;50.742;6.432;2022-12-18T10:58:22;10.35;;;7.75;;
50225;SDS011;36113;50.742;6.432;2022-12-18T11:01:01;8.75;;;6.60;;
50225;SDS011;36113;50.742;6.432;2022-12-18T11:03:34;10.52;;;7.35;;
50225;SDS011;36113;50.742;6.432;2022-12-18T11:06:10;8.20;;;6.32;;
50225;SDS011;36113;50.742;6.432;2022-12-18T11:08:40;9.65;;;6.75;;
50225;SDS011;36113;50.742;6.432;2022-12-18T11:11:15;8.50;;;7.03;;
50225;SDS011;36113;50.742;6.432;2022-12-18T11:14:02;11.07;;;6.90;;
50225;SDS011;36113;50.742;6.432;2022-12-18T11:16:30;7.90;;;6.07;;
50225;SDS011;36113;50.742;6.432;2022-12-18T11:22:24;22.00;;;13.90;;
50225;SDS011;36113;50.742;6.432;2022-12-18T11:25:03;17.08;;;12.30;;
50225;SDS011;36113;50.742;6.432;2022-12-18T11:27:39;20.95;;;13.23;;
50225;SDS011;36113;50.742;6.432;2022-12-18T11:30:07;11.30;;;7.97;;
50225;SDS011;36113;50.742;6.432;2022-12-18T11:32:43;8.55;;;6.32;;
50225;SDS011;36113;50.742;6.432;2022-12-18T11:35:17;6.77;;;5.33;;
50225;SDS011;36113;50.742;6.432;2022-12-18T11:37:54;9.50;;;6.05;;
50225;SDS011;36113;50.742;6.432;2022-12-18T11:40:30;12.63;;;8.52;;
50225;SDS011;36113;50.742;6.432;2022-12-18T11:43:10;13.77;;;8.70;;
50225;SDS011;36113;50.742;6.432;2022-12-18T11:45:59;15.73;;;9.98;;
50225;SDS011;36113;50.742;6.432;2022-12-18T11:54:10;23.90;;;14.10;;
50225;SDS011;36113;50.742;6.432;2022-12-18T12:05:19;9.88;;;7.63;;
50225;SDS011;36113;50.742;6.432;2022-12-18T12:13:40;6.93;;;5.97;;
50225;SDS011;36113;50.742;6.432;2022-12-18T12:25:02;14.27;;;8.45;;
50225;SDS011;36113;50.742;6.432;2022-12-18T12:30:24;10.60;;;6.35;;
50225;SDS011;36113;50.742;6.432;2022-12-18T12:38:17;13.45;;;10.20;;
50225;SDS011;36113;50.742;6.432;2022-12-18T12:40:54;22.83;;;14.07;;
50225;SDS011;36113;50.742;6.432;2022-12-18T12:43:26;25.23;;;15.43;;
50225;SDS011;36113;50.742;6.432;2022-12-18T12:46:03;21.73;;;15.30;;
50225;SDS011;36113;50.742;6.432;2022-12-18T12:48:35;21.80;;;13.75;;
50225;SDS011;36113;50.742;6.432;2022-12-18T12:53:49;25.15;;;16.67;;
50225;SDS011;36113;50.742;6.432;2022-12-18T12:56:16;34.72;;;21.42;;
50225;SDS011;36113;50.742;6.432;2022-12-18T13:01:49;22.10;;;15.15;;
50225;SDS011;36113;50.742;6.432;2022-12-18T13:12:57;11.55;;;8.23;;
50225;SDS011;36113;50.742;6.432;2022-12-18T13:15:37;11.88;;;7.90;;
50225;SDS011;36113;50.742;6.432;2022-12-18T13:20:34;17.35;;;11.20;;
50225;SDS011;36113;50.742;6.432;2022-12-18T13:23:01;17.42;;;9.68;;
50225;SDS011;36113;50.742;6.432;2022-12-18T13:25:44;15.02;;;9.05;;
50225;SDS011;36113;50.742;6.432;2022-12-18T13:28:13;14.93;;;9.70;;
50225;SDS011;36113;50.742;6.432;2022-12-18T13:30:44;30.58;;;14.57;;
50225;SDS011;36113;50.742;6.432;2022-12-18T13:45:47;15.52;;;10.43;;
50225;SDS011;36113;50.742;6.432;2022-12-18T13:50:52;12.85;;;9.00;;
50225;SDS011;36113;50.742;6.432;2022-12-18T13:53:34;12.82;;;9.75;;
50225;SDS011;36113;50.742;6.432;2022-12-18T13:56:03;12.68;;;9.52;;
50225;SDS011;36113;50.742;6.432;2022-12-18T13:58:29;16.10;;;11.32;;
50225;SDS011;36113;50.742;6.432;2022-12-18T14:00:54;17.00;;;10.75;;
50225;SDS011;36113;50.742;6.432;2022-12-18T14:05:51;13.65;;;10.85;;
50225;SDS011;36113;50.742;6.432;2022-12-18T14:08:19;18.55;;;10.85;;
50225;SDS011;36113;50.742;6.432;2022-12-18T14:10:46;14.50;;;10.47;;
50225;SDS011;36113;50.742;6.432;2022-12-18T14:13:35;14.13;;;10.00;;
50225;SDS011;36113;50.742;6.432;2022-12-18T14:16:05;15.90;;;9.60;;
50225;SDS011;36113;50.742;6.432;2022-12-18T14:21:41;12.98;;;8.98;;
50225;SDS011;36113;50.742;6.432;2022-12-18T14:26:44;10.73;;;7.97;;
50225;SDS011;36113;50.742;6.432;2022-12-18T14:34:40;11.25;;;7.20;;
50225;SDS011;36113;50.742;6.432;2022-12-18T14:37:08;15.60;;;9.02;;
50225;SDS011;36113;50.742;6.432;2022-12-18T14:39:36;9.98;;;7.25;;
50225;SDS011;36113;50.742;6.432;2022-12-18T14:42:01;9.23;;;7.00;;
50225;SDS011;36113;50.742;6.432;2022-12-18T14:44:26;8.23;;;6.40;;
50225;SDS011;36113;50.742;6.432;2022-12-18T14:46:52;20.13;;;12.60;;
50225;SDS011;36113;50.742;6.432;2022-12-18T14:49:33;16.97;;;12.30;;
50225;SDS011;36113;50.742;6.432;2022-12-18T14:52:03;18.25;;;12.43;;
50225;SDS011;36113;50.742;6.432;2022-12-18T14:54:31;14.88;;;10.85;;
50225;SDS011;36113;50.742;6.432;2022-12-18T14:57:06;15.18;;;10.82;;
50225;SDS011;36113;50.742;6.432;2022-12-18T14:59:44;12.70;;;9.43;;
50225;SDS011;36113;50.742;6.432;2022-12-18T15:02:22;12.63;;;9.38;;
50225;SDS011;36113;50.742;6.432;2022-12-18T15:05:00;18.55;;;11.40;;
50225;SDS011;36113;50.742;6.432;2022-12-18T15:07:27;14.05;;;9.95;;
50225;SDS011;36113;50.742;6.432;2022-12-18T15:20:40;17.88;;;11.98;;
50225;SDS011;36113;50.742;6.432;2022-12-18T15:23:18;17.40;;;11.02;;
50225;SDS011;36113;50.742;6.432;2022-12-18T15:25:47;12.77;;;9.05;;
50225;SDS011;36113;50.742;6.432;2022-12-18T15:28:22;12.38;;;8.57;;
50225;SDS011;36113;50.742;6.432;2022-12-18T15:33:37;8.70;;;6.90;;
50225;SDS011;36113;50.742;6.432;2022-12-18T15:36:08;12.63;;;6.95;;
50225;SDS011;36113;50.742;6.432;2022-12-18T15:38:35;11.18;;;8.02;;
50225;SDS011;36113;50.742;6.432;2022-12-18T15:41:01;18.90;;;11.93;;
50225;SDS011;36113;50.742;6.432;2022-12-18T15:43:27;11.07;;;7.88;;
50225;SDS011;36113;50.742;6.432;2022-12-18T15:45:59;14.75;;;9.10;;
50225;SDS011;36113;50.742;6.432;2022-12-18T15:48:32;15.43;;;7.80;;
50225;SDS011;36113;50.742;6.432;2022-12-18T15:51:00;17.80;;;9.98;;
50225;SDS011;36113;50.742;6.432;2022-12-18T15:53:28;13.48;;;8.68;;
50225;SDS011;36113;50.742;6.432;2022-12-18T15:55:57;15.50;;;9.48;;
50225;SDS011;36113;50.742;6.432;2022-12-18T15:58:41;11.98;;;8.85;;
50225;SDS011;36113;50.742;6.432;2022-12-18T16:01:07;12.38;;;9.15;;
50225;SDS011;36113;50.742;6.432;2022-12-18T16:03:35;12.70;;;8.85;;
50225;SDS011;36113;50.742;6.432;2022-12-18T16:06:01;16.63;;;10.90;;
50225;SDS011;36113;50.742;6.432;2022-12-18T16:08:27;13.35;;;8.98;;
50225;SDS011;36113;50.742;6.432;2022-12-18T16:10:57;13.50;;;10.15;;
50225;SDS011;36113;50.742;6.432;2022-12-18T16:13:23;11.43;;;8.30;;
50225;SDS011;36113;50.742;6.432;2022-12-18T16:15:49;13.68;;;9.25;;
50225;SDS011;36113;50.742;6.432;2022-12-18T16:18:14;15.88;;;10.25;;
50225;SDS011;36113;50.742;6.432;2022-12-18T16:20:39;15.57;;;8.95;;
50225;SDS011;36113;50.742;6.432;2022-12-18T16:23:05;12.25;;;8.75;;
50225;SDS011;36113;50.742;6.432;2022-12-18T16:25:32;12.75;;;8.70;;
50225;SDS011;36113;50.742;6.432;2022-12-18T16:27:58;13.10;;;9.48;;
50225;SDS011;36113;50.742;6.432;2022-12-18T16:30:24;19.80;;;10.85;;
50225;SDS011;36113;50.742;6.432;2022-12-18T16:32:55;17.38;;;11.90;;
50225;SDS011;36113;50.742;6.432;2022-12-18T16:35:22;17.65;;;11.68;;
50225;SDS011;36113;50.742;6.432;2022-12-18T16:37:48;15.03;;;9.77;;
50225;SDS011;36113;50.742;6.432;2022-12-18T16:40:14;15.65;;;9.93;;
50225;SDS011;36113;50.742;6.432;2022-12-18T16:42:41;41.60;;;20.67;;
50225;SDS011;36113;50.742;6.432;2022-12-18T16:45:09;18.10;;;10.65;;
50225;SDS011;36113;50.742;6.432;2022-12-18T16:47:37;13.10;;;9.00;;
50225;SDS011;36113;50.742;6.432;2022-12-18T16:50:03;14.77;;;9.35;;
50225;SDS011;36113;50.742;6.432;2022-12-18T16:52:29;16.50;;;10.60;;
50225;SDS011;36113;50.742;6.432;2022-12-18T16:54:55;19.48;;;12.77;;
50225;SDS011;36113;50.742;6.432;2022-12-18T16:57:21;20.20;;;13.35;;
50225;SDS011;36113;50.742;6.432;2022-12-18T16:59:47;20.70;;;12.30;;
50225;SDS011;36113;50.742;6.432;2022-12-18T17:02:13;16.15;;;10.70;;
50225;SDS011;36113;50.742;6.432;2022-12-18T17:04:40;12.80;;;9.25;;
50225;SDS011;36113;50.742;6.432;2022-12-18T17:07:06;16.65;;;10.05;;
50225;SDS011;36113;50.742;6.432;2022-12-18T17:09:32;16.27;;;10.30;;
50225;SDS011;36113;50.742;6.432;2022-12-18T17:11:57;20.67;;;13.02;;